sensor_id;sensor_type;location;lat;lon;timestamp;P1;durP1;ratioP1;P2;durP2;ratioP2
31378;SDS011;61664;48.112;11.662;2023-05-10T00:02:07;0.30;;;0.30;;
31378;SDS011;61664;48.112;11.662;2023-05-10T00:04:34;0.22;;;0.20;;
31378;SDS011;61664;48.112;11.662;2023-05-10T00:07:01;0.30;;;0.30;;
31378;SDS011;61664;48.112;11.662;2023-05-10T00:09:28;0.52;;;0.38;;
31378;SDS011;61664;48.112;11.662;2023-05-10T00:11:55;0.30;;;0.30;;
31378;SDS011;61664;48.112;11.662;2023-05-10T00:14:24;0.32;;;0.20;;
31378;SDS011;61664;48.112;11.662;2023-05-10T00:16:51;0.40;;;0.40;;
31378;SDS011;61664;48.112;11.662;2023-05-10T00:19:18;0.45;;;0.40;;
31378;SDS011;61664;48.112;11.662;2023-05-10T00:21:45;0.40;;;0.40;;
31378;SDS011;61664;48.112;11.662;2023-05-10T00:24:12;0.28;;;0.28;;
31378;SDS011;61664;48.112;11.662;2023-05-10T00:26:39;0.60;;;0.60;;
31378;SDS011;61664;48.112;11.662;2023-05-10T00:29:08;0.55;;;0.40;;
31378;SDS011;61664;48.112;11.662;2023-05-10T00:31:35;2.50;;;0.65;;
31378;SDS011;61664;48.112;11.662;2023-05-10T00:34:02;0.30;;;0.30;;
31378;SDS011;61664;48.112;11.662;2023-05-10T00:36:29;0.65;;;0.35;;
31378;SDS011;61664;48.112;11.662;2023-05-10T00:38:57;0.30;;;0.30;;
31378;SDS011;61664;48.112;11.662;2023-05-10T00:41:24;0.60;;;0.35;;
31378;SDS011;61664;48.112;11.662;2023-05-10T00:43:51;0.50;;;0.20;;
31378;SDS011;61664;48.112;11.662;2023-05-10T00:46:18;0.25;;;0.20;;
31378;SDS011;61664;48.112;11.662;2023-05-10T00:48:45;0.60;;;0.40;;
31378;SDS011;61664;48.112;11.662;2023-05-10T00:51:12;0.22;;;0.20;;
31378;SDS011;61664;48.112;11.662;2023-05-10T00:53:40;0.32;;;0.30;;
31378;SDS011;61664;48.112;11.662;2023-05-10T00:56:07;0.20;;;0.20;;
31378;SDS011;61664;48.112;11.662;2023-05-10T00:58:34;0.40;;;0.30;;
31378;SDS011;61664;48.112;11.662;2023-05-10T01:01:01;1.25;;;0.20;;
31378;SDS011;61664;48.112;11.662;2023-05-10T01:03:29;0.40;;;0.30;;
31378;SDS011;61664;48.112;11.662;2023-05-10T01:05:58;0.63;;;0.20;;
31378;SDS011;61664;48.112;11.662;2023-05-10T01:08:25;0.20;;;0.20;;
31378;SDS011;61664;48.112;11.662;2023-05-10T01:10:52;0.20;;;0.20;;
31378;SDS011;61664;48.112;11.662;2023-05-10T01:13:39;0.40;;;0.20;;
31378;SDS011;61664;48.112;11.662;2023-05-10T01:16:09;0.13;;;0.13;;
31378;SDS011;61664;48.112;11.662;2023-05-10T01:18:38;0.20;;;0.20;;
31378;SDS011;61664;48.112;11.662;2023-05-10T01:24:04;0.28;;;0.28;;
31378;SDS011;61664;48.112;11.662;2023-05-10T01:36:00;0.28;;;0.28;;
31378;SDS011;61664;48.112;11.662;2023-05-10T01:39:09;0.20;;;0.20;;
31378;SDS011;61664;48.112;11.662;2023-05-10T01:42:14;0.40;;;0.40;;
31378;SDS011;61664;48.112;11.662;2023-05-10T01:45:02;0.20;;;0.20;;
31378;SDS011;61664;48.112;11.662;2023-05-10T01:53:09;0.10;;;0.10;;
31378;SDS011;61664;48.112;11.662;2023-05-10T01:55:39;0.20;;;0.20;;
31378;SDS011;61664;48.112;11.662;2023-05-10T01:58:15;0.10;;;0.10;;
31378;SDS011;61664;48.112;11.662;2023-05-10T02:00:51;0.10;;;0.10;;
31378;SDS011;61664;48.112;11.662;2023-05-10T02:03:23;0.20;;;0.20;;
31378;SDS011;61664;48.112;11.662;2023-05-10T02:05:52;0.20;;;0.20;;
31378;SDS011;61664;48.112;11.662;2023-05-10T02:08:22;0.20;;;0.20;;
31378;SDS011;61664;48.112;11.662;2023-05-10T02:10:52;0.13;;;0.13;;
31378;SDS011;61664;48.112;11.662;2023-05-10T02:13:23;0.10;;;0.10;;
31378;SDS011;61664;48.112;11.662;2023-05-10T02:15:52;0.20;;;0.20;;
31378;SDS011;61664;48.112;11.662;2023-05-10T02:18:21;0.20;;;0.20;;
31378;SDS011;61664;48.112;11.662;2023-05-10T02:20:51;0.35;;;0.20;;
31378;SDS011;61664;48.112;11.662;2023-05-10T02:23:21;0.20;;;0.20;;
31378;SDS011;61664;48.112;11.662;2023-05-10T02:25:49;0.80;;;0.20;;
31378;SDS011;61664;48.112;11.662;2023-05-10T02:28:20;0.47;;;0.30;;
31378;SDS011;61664;48.112;11.662;2023-05-10T02:30:50;0.15;;;0.15;;
31378;SDS011;61664;48.112;11.662;2023-05-10T02:33:19;0.50;;;0.20;;
31378;SDS011;61664;48.112;11.662;2023-05-10T02:35:48;0.30;;;0.30;;
31378;SDS011;61664;48.112;11.662;2023-05-10T02:38:20;0.15;;;0.15;;
31378;SDS011;61664;48.112;11.662;2023-05-10T02:40:49;0.38;;;0.20;;
31378;SDS011;61664;48.112;11.662;2023-05-10T02:43:18;0.10;;;0.10;;
31378;SDS011;61664;48.112;11.662;2023-05-10T02:48:16;0.15;;;0.15;;
31378;SDS011;61664;48.112;11.662;2023-05-10T02:50:44;0.43;;;0.20;;
31378;SDS011;61664;48.112;11.662;2023-05-10T02:53:15;0.22;;;0.20;;
31378;SDS011;61664;48.112;11.662;2023-05-10T02:55:50;0.10;;;0.10;;
31378;SDS011;61664;48.112;11.662;2023-05-10T02:58:24;0.22;;;0.22;;
31378;SDS011;61664;48.112;11.662;2023-05-10T03:00:52;0.30;;;0.30;;
31378;SDS011;61664;48.112;11.662;2023-05-10T03:03:19;0.10;;;0.10;;
31378;SDS011;61664;48.112;11.662;2023-05-10T03:05:47;0.28;;;0.25;;
31378;SDS011;61664;48.112;11.662;2023-05-10T03:08:14;0.20;;;0.20;;
31378;SDS011;61664;48.112;11.662;2023-05-10T03:10:43;0.30;;;0.20;;
31378;SDS011;61664;48.112;11.662;2023-05-10T03:13:43;0.20;;;0.20;;
31378;SDS011;61664;48.112;11.662;2023-05-10T03:17:15;0.20;;;0.20;;
31378;SDS011;61664;48.112;11.662;2023-05-10T03:19:58;0.88;;;0.20;;
31378;SDS011;61664;48.112;11.662;2023-05-10T03:23:26;0.10;;;0.10;;
31378;SDS011;61664;48.112;11.662;2023-05-10T03:26:07;0.10;;;0.10;;
31378;SDS011;61664;48.112;11.662;2023-05-10T03:28:35;0.20;;;0.20;;
31378;SDS011;61664;48.112;11.662;2023-05-10T03:31:03;0.10;;;0.10;;
31378;SDS011;61664;48.112;11.662;2023-05-10T03:33:32;0.60;;;0.20;;
31378;SDS011;61664;48.112;11.662;2023-05-10T03:35:59;0.10;;;0.10;;
31378;SDS011;61664;48.112;11.662;2023-05-10T03:38:26;0.25;;;0.20;;
31378;SDS011;61664;48.112;11.662;2023-05-10T03:40:55;0.20;;;0.20;;
31378;SDS011;61664;48.112;11.662;2023-05-10T03:43:22;0.32;;;0.22;;
31378;SDS011;61664;48.112;11.662;2023-05-10T03:45:49;0.20;;;0.20;;
31378;SDS011;61664;48.112;11.662;2023-05-10T03:48:16;0.20;;;0.10;;
31378;SDS011;61664;48.112;11.662;2023-05-10T03:50:43;0.20;;;0.10;;
31378;SDS011;61664;48.112;11.662;2023-05-10T03:53:10;0.10;;;0.10;;
31378;SDS011;61664;48.112;11.662;2023-05-10T03:55:37;1.30;;;0.20;;
31378;SDS011;61664;48.112;11.662;2023-05-10T03:58:04;0.20;;;0.13;;
31378;SDS011;61664;48.112;11.662;2023-05-10T04:00:31;0.10;;;0.10;;
31378;SDS011;61664;48.112;11.662;2023-05-10T04:02:58;0.55;;;0.10;;
31378;SDS011;61664;48.112;11.662;2023-05-10T04:05:25;0.13;;;0.13;;
31378;SDS011;61664;48.112;11.662;2023-05-10T04:07:52;0.17;;;0.10;;
31378;SDS011;61664;48.112;11.662;2023-05-10T04:10:19;0.10;;;0.10;;
31378;SDS011;61664;48.112;11.662;2023-05-10T04:12:47;0.32;;;0.17;;
31378;SDS011;61664;48.112;11.662;2023-05-10T04:15:14;0.10;;;0.10;;
31378;SDS011;61664;48.112;11.662;2023-05-10T04:17:41;1.17;;;0.10;;
31378;SDS011;61664;48.112;11.662;2023-05-10T04:20:08;0.90;;;0.20;;
31378;SDS011;61664;48.112;11.662;2023-05-10T04:22:35;0.45;;;0.30;;
31378;SDS011;61664;48.112;11.662;2023-05-10T04:25:02;0.25;;;0.20;;
31378;SDS011;61664;48.112;11.662;2023-05-10T04:27:30;0.10;;;0.10;;
31378;SDS011;61664;48.112;11.662;2023-05-10T04:29:57;0.10;;;0.10;;
31378;SDS011;61664;48.112;11.662;2023-05-10T04:32:24;0.10;;;0.10;;
31378;SDS011;61664;48.112;11.662;2023-05-10T04:34:51;0.10;;;0.10;;
31378;SDS011;61664;48.112;11.662;2023-05-10T04:37:19;0.20;;;0.20;;
31378;SDS011;61664;48.112;11.662;2023-05-10T04:39:47;0.10;;;0.10;;
31378;SDS011;61664;48.112;11.662;2023-05-10T04:42:14;0.17;;;0.17;;
31378;SDS011;61664;48.112;11.662;2023-05-10T04:44:41;0.10;;;0.10;;
31378;SDS011;61664;48.112;11.662;2023-05-10T04:47:08;0.38;;;0.38;;
31378;SDS011;61664;48.112;11.662;2023-05-10T04:49:37;0.20;;;0.20;;
31378;SDS011;61664;48.112;11.662;2023-05-10T04:52:04;0.10;;;0.10;;
31378;SDS011;61664;48.112;11.662;2023-05-10T04:54:31;0.10;;;0.10;;
31378;SDS011;61664;48.112;11.662;2023-05-10T04:56:58;0.20;;;0.10;;
31378;SDS011;61664;48.112;11.662;2023-05-10T04:59:25;0.17;;;0.17;;
31378;SDS011;61664;48.112;11.662;2023-05-10T05:01:52;0.10;;;0.10;;
31378;SDS011;61664;48.112;11.662;2023-05-10T05:04:19;0.38;;;0.38;;
31378;SDS011;61664;48.112;11.662;2023-05-10T05:06:46;0.10;;;0.10;;
31378;SDS011;61664;48.112;11.662;2023-05-10T05:09:13;0.10;;;0.10;;
31378;SDS011;61664;48.112;11.662;2023-05-10T05:11:40;0.10;;;0.10;;
31378;SDS011;61664;48.112;11.662;2023-05-10T05:14:07;0.10;;;0.10;;
31378;SDS011;61664;48.112;11.662;2023-05-10T05:16:46;0.20;;;0.20;;
31378;SDS011;61664;48.112;11.662;2023-05-10T05:19:22;0.30;;;0.20;;
31378;SDS011;61664;48.112;11.662;2023-05-10T05:21:49;0.10;;;0.10;;
31378;SDS011;61664;48.112;11.662;2023-05-10T05:24:16;0.13;;;0.13;;
31378;SDS011;61664;48.112;11.662;2023-05-10T05:26:43;0.20;;;0.20;;
31378;SDS011;61664;48.112;11.662;2023-05-10T05:29:10;0.50;;;0.10;;
31378;SDS011;61664;48.112;11.662;2023-05-10T05:31:37;0.20;;;0.20;;
31378;SDS011;61664;48.112;11.662;2023-05-10T05:34:04;0.43;;;0.28;;
31378;SDS011;61664;48.112;11.662;2023-05-10T05:36:31;0.22;;;0.17;;
31378;SDS011;61664;48.112;11.662;2023-05-10T05:39:01;1.30;;;0.10;;
31378;SDS011;61664;48.112;11.662;2023-05-10T05:41:28;0.10;;;0.10;;
31378;SDS011;61664;48.112;11.662;2023-05-10T05:43:54;0.10;;;0.10;;
31378;SDS011;61664;48.112;11.662;2023-05-10T05:46:21;0.10;;;0.10;;
31378;SDS011;61664;48.112;11.662;2023-05-10T05:48:48;0.10;;;0.10;;
31378;SDS011;61664;48.112;11.662;2023-05-10T05:51:15;0.20;;;0.20;;
31378;SDS011;61664;48.112;11.662;2023-05-10T05:53:42;1.65;;;0.20;;
31378;SDS011;61664;48.112;11.662;2023-05-10T05:56:09;0.10;;;0.10;;
31378;SDS011;61664;48.112;11.662;2023-05-10T05:58:51;1.27;;;0.20;;
31378;SDS011;61664;48.112;11.662;2023-05-10T06:01:20;1.95;;;0.20;;
31378;SDS011;61664;48.112;11.662;2023-05-10T06:03:47;0.98;;;0.20;;
31378;SDS011;61664;48.112;11.662;2023-05-10T06:06:18;0.75;;;0.20;;
31378;SDS011;61664;48.112;11.662;2023-05-10T06:08:45;0.28;;;0.20;;
31378;SDS011;61664;48.112;11.662;2023-05-10T06:11:12;0.28;;;0.20;;
31378;SDS011;61664;48.112;11.662;2023-05-10T06:13:39;0.15;;;0.15;;
31378;SDS011;61664;48.112;11.662;2023-05-10T06:16:06;0.20;;;0.20;;
31378;SDS011;61664;48.112;11.662;2023-05-10T06:18:33;2.15;;;0.50;;
31378;SDS011;61664;48.112;11.662;2023-05-10T06:21:00;0.20;;;0.20;;
31378;SDS011;61664;48.112;11.662;2023-05-10T06:23:27;0.20;;;0.20;;
31378;SDS011;61664;48.112;11.662;2023-05-10T06:25:55;0.52;;;0.30;;
31378;SDS011;61664;48.112;11.662;2023-05-10T06:28:21;0.40;;;0.40;;
31378;SDS011;61664;48.112;11.662;2023-05-10T06:30:48;0.20;;;0.20;;
31378;SDS011;61664;48.112;11.662;2023-05-10T06:33:15;1.15;;;0.43;;
31378;SDS011;61664;48.112;11.662;2023-05-10T06:35:42;0.88;;;0.30;;
31378;SDS011;61664;48.112;11.662;2023-05-10T06:38:09;0.30;;;0.30;;
31378;SDS011;61664;48.112;11.662;2023-05-10T06:40:36;0.20;;;0.20;;
31378;SDS011;61664;48.112;11.662;2023-05-10T06:43:03;0.50;;;0.30;;
31378;SDS011;61664;48.112;11.662;2023-05-10T06:45:29;1.10;;;0.40;;
31378;SDS011;61664;48.112;11.662;2023-05-10T06:47:56;0.55;;;0.40;;
31378;SDS011;61664;48.112;11.662;2023-05-10T06:50:23;1.17;;;0.40;;
31378;SDS011;61664;48.112;11.662;2023-05-10T06:52:50;0.30;;;0.30;;
31378;SDS011;61664;48.112;11.662;2023-05-10T06:55:18;1.33;;;0.43;;
31378;SDS011;61664;48.112;11.662;2023-05-10T06:57:46;0.60;;;0.40;;
31378;SDS011;61664;48.112;11.662;2023-05-10T07:00:14;0.60;;;0.30;;
31378;SDS011;61664;48.112;11.662;2023-05-10T07:02:41;0.30;;;0.30;;
31378;SDS011;61664;48.112;11.662;2023-05-10T07:05:08;0.32;;;0.32;;
31378;SDS011;61664;48.112;11.662;2023-05-10T07:07:35;0.50;;;0.40;;
31378;SDS011;61664;48.112;11.662;2023-05-10T07:10:02;0.63;;;0.43;;
31378;SDS011;61664;48.112;11.662;2023-05-10T07:12:30;0.30;;;0.30;;
31378;SDS011;61664;48.112;11.662;2023-05-10T07:14:57;0.40;;;0.40;;
31378;SDS011;61664;48.112;11.662;2023-05-10T07:17:24;0.30;;;0.30;;
31378;SDS011;61664;48.112;11.662;2023-05-10T07:19:51;0.77;;;0.40;;
31378;SDS011;61664;48.112;11.662;2023-05-10T07:22:18;0.60;;;0.40;;
31378;SDS011;61664;48.112;11.662;2023-05-10T07:24:45;0.85;;;0.75;;
31378;SDS011;61664;48.112;11.662;2023-05-10T07:27:12;0.45;;;0.45;;
31378;SDS011;61664;48.112;11.662;2023-05-10T07:29:39;0.43;;;0.43;;
31378;SDS011;61664;48.112;11.662;2023-05-10T07:32:06;0.50;;;0.40;;
31378;SDS011;61664;48.112;11.662;2023-05-10T07:34:45;1.35;;;0.50;;
31378;SDS011;61664;48.112;11.662;2023-05-10T07:37:13;0.40;;;0.40;;
31378;SDS011;61664;48.112;11.662;2023-05-10T07:39:40;0.57;;;0.43;;
31378;SDS011;61664;48.112;11.662;2023-05-10T07:42:07;2.25;;;0.55;;
31378;SDS011;61664;48.112;11.662;2023-05-10T07:44:36;0.57;;;0.50;;
31378;SDS011;61664;48.112;11.662;2023-05-10T07:47:04;0.65;;;0.65;;
31378;SDS011;61664;48.112;11.662;2023-05-10T07:49:33;0.52;;;0.52;;
31378;SDS011;61664;48.112;11.662;2023-05-10T07:52:00;0.55;;;0.40;;
31378;SDS011;61664;48.112;11.662;2023-05-10T07:54:26;0.30;;;0.30;;
31378;SDS011;61664;48.112;11.662;2023-05-10T07:56:53;1.02;;;0.50;;
31378;SDS011;61664;48.112;11.662;2023-05-10T07:59:20;1.50;;;0.40;;
31378;SDS011;61664;48.112;11.662;2023-05-10T08:01:47;0.60;;;0.60;;
31378;SDS011;61664;48.112;11.662;2023-05-10T08:04:14;0.65;;;0.65;;
31378;SDS011;61664;48.112;11.662;2023-05-10T08:06:41;0.50;;;0.50;;
31378;SDS011;61664;48.112;11.662;2023-05-10T08:09:08;0.40;;;0.40;;
31378;SDS011;61664;48.112;11.662;2023-05-10T08:11:35;0.40;;;0.40;;
31378;SDS011;61664;48.112;11.662;2023-05-10T08:14:02;0.43;;;0.43;;
31378;SDS011;61664;48.112;11.662;2023-05-10T08:16:29;0.32;;;0.32;;
31378;SDS011;61664;48.112;11.662;2023-05-10T08:18:56;0.70;;;0.50;;
31378;SDS011;61664;48.112;11.662;2023-05-10T08:21:23;0.70;;;0.65;;
31378;SDS011;61664;48.112;11.662;2023-05-10T08:23:50;1.02;;;0.45;;
31378;SDS011;61664;48.112;11.662;2023-05-10T08:26:17;0.70;;;0.70;;
31378;SDS011;61664;48.112;11.662;2023-05-10T08:28:44;0.90;;;0.65;;
31378;SDS011;61664;48.112;11.662;2023-05-10T08:31:11;0.45;;;0.45;;
31378;SDS011;61664;48.112;11.662;2023-05-10T08:33:38;1.17;;;1.08;;
31378;SDS011;61664;48.112;11.662;2023-05-10T08:36:08;1.23;;;0.82;;
31378;SDS011;61664;48.112;11.662;2023-05-10T08:38:35;1.73;;;1.63;;
31378;SDS011;61664;48.112;11.662;2023-05-10T08:41:03;0.70;;;0.70;;
31378;SDS011;61664;48.112;11.662;2023-05-10T08:43:32;1.13;;;0.40;;
31378;SDS011;61664;48.112;11.662;2023-05-10T08:46:01;0.30;;;0.30;;
31378;SDS011;61664;48.112;11.662;2023-05-10T08:48:31;0.40;;;0.30;;
31378;SDS011;61664;48.112;11.662;2023-05-10T08:51:00;0.30;;;0.30;;
31378;SDS011;61664;48.112;11.662;2023-05-10T08:53:30;0.20;;;0.20;;
31378;SDS011;61664;48.112;11.662;2023-05-10T08:56:01;0.33;;;0.30;;
31378;SDS011;61664;48.112;11.662;2023-05-10T08:58:29;0.30;;;0.30;;
31378;SDS011;61664;48.112;11.662;2023-05-10T09:00:57;0.30;;;0.30;;
31378;SDS011;61664;48.112;11.662;2023-05-10T09:03:25;0.28;;;0.28;;
31378;SDS011;61664;48.112;11.662;2023-05-10T09:05:52;0.20;;;0.20;;
31378;SDS011;61664;48.112;11.662;2023-05-10T09:08:22;1.35;;;0.30;;
31378;SDS011;61664;48.112;11.662;2023-05-10T09:10:54;0.30;;;0.30;;
31378;SDS011;61664;48.112;11.662;2023-05-10T09:13:22;1.10;;;1.00;;
31378;SDS011;61664;48.112;11.662;2023-05-10T09:15:50;0.90;;;0.70;;
31378;SDS011;61664;48.112;11.662;2023-05-10T09:18:19;0.68;;;0.60;;
31378;SDS011;61664;48.112;11.662;2023-05-10T09:20:46;0.40;;;0.40;;
31378;SDS011;61664;48.112;11.662;2023-05-10T09:23:13;0.35;;;0.32;;
31378;SDS011;61664;48.112;11.662;2023-05-10T09:25:43;0.75;;;0.20;;
31378;SDS011;61664;48.112;11.662;2023-05-10T09:28:10;0.90;;;0.90;;
31378;SDS011;61664;48.112;11.662;2023-05-10T09:30:37;0.70;;;0.60;;
31378;SDS011;61664;48.112;11.662;2023-05-10T09:33:05;0.80;;;0.50;;
31378;SDS011;61664;48.112;11.662;2023-05-10T09:35:32;0.70;;;0.52;;
31378;SDS011;61664;48.112;11.662;2023-05-10T09:38:00;1.00;;;0.40;;
31378;SDS011;61664;48.112;11.662;2023-05-10T09:40:31;0.22;;;0.22;;
31378;SDS011;61664;48.112;11.662;2023-05-10T09:42:59;0.35;;;0.35;;
31378;SDS011;61664;48.112;11.662;2023-05-10T09:45:30;0.82;;;0.30;;
31378;SDS011;61664;48.112;11.662;2023-05-10T09:48:03;0.32;;;0.32;;
31378;SDS011;61664;48.112;11.662;2023-05-10T09:50:31;0.20;;;0.20;;
31378;SDS011;61664;48.112;11.662;2023-05-10T09:52:59;0.38;;;0.20;;
31378;SDS011;61664;48.112;11.662;2023-05-10T09:58:02;0.30;;;0.30;;
31378;SDS011;61664;48.112;11.662;2023-05-10T10:00:34;0.20;;;0.20;;
31378;SDS011;61664;48.112;11.662;2023-05-10T10:03:22;0.28;;;0.20;;
31378;SDS011;61664;48.112;11.662;2023-05-10T10:05:50;0.22;;;0.22;;
31378;SDS011;61664;48.112;11.662;2023-05-10T10:08:19;0.20;;;0.20;;
31378;SDS011;61664;48.112;11.662;2023-05-10T10:10:46;0.35;;;0.35;;
31378;SDS011;61664;48.112;11.662;2023-05-10T10:13:14;0.38;;;0.38;;
31378;SDS011;61664;48.112;11.662;2023-05-10T10:15:41;2.40;;;0.30;;
31378;SDS011;61664;48.112;11.662;2023-05-10T10:18:13;0.30;;;0.30;;
31378;SDS011;61664;48.112;11.662;2023-05-10T10:20:41;0.38;;;0.38;;
31378;SDS011;61664;48.112;11.662;2023-05-10T10:23:08;0.10;;;0.10;;
31378;SDS011;61664;48.112;11.662;2023-05-10T10:25:35;0.20;;;0.20;;
31378;SDS011;61664;48.112;11.662;2023-05-10T10:34:26;0.38;;;0.38;;
31378;SDS011;61664;48.112;11.662;2023-05-10T10:36:55;2.65;;;0.70;;
31378;SDS011;61664;48.112;11.662;2023-05-10T10:39:24;2.95;;;0.32;;
31378;SDS011;61664;48.112;11.662;2023-05-10T10:41:52;2.85;;;0.60;;
31378;SDS011;61664;48.112;11.662;2023-05-10T10:49:33;0.88;;;0.55;;
31378;SDS011;61664;48.112;11.662;2023-05-10T10:57:32;0.60;;;0.30;;
31378;SDS011;61664;48.112;11.662;2023-05-10T11:02:59;0.20;;;0.20;;
31378;SDS011;61664;48.112;11.662;2023-05-10T11:13:30;0.30;;;0.30;;
31378;SDS011;61664;48.112;11.662;2023-05-10T11:19:02;0.22;;;0.22;;
31378;SDS011;61664;48.112;11.662;2023-05-10T11:21:34;0.55;;;0.40;;
31378;SDS011;61664;48.112;11.662;2023-05-10T11:24:26;0.30;;;0.30;;
31378;SDS011;61664;48.112;11.662;2023-05-10T11:26:54;0.88;;;0.50;;
31378;SDS011;61664;48.112;11.662;2023-05-10T11:29:22;0.43;;;0.38;;
31378;SDS011;61664;48.112;11.662;2023-05-10T11:31:49;0.90;;;0.35;;
31378;SDS011;61664;48.112;11.662;2023-05-10T11:34:24;0.63;;;0.50;;
31378;SDS011;61664;48.112;11.662;2023-05-10T11:36:53;0.63;;;0.38;;
31378;SDS011;61664;48.112;11.662;2023-05-10T11:39:22;0.20;;;0.20;;
31378;SDS011;61664;48.112;11.662;2023-05-10T11:41:54;0.47;;;0.30;;
31378;SDS011;61664;48.112;11.662;2023-05-10T11:44:21;0.90;;;0.50;;
31378;SDS011;61664;48.112;11.662;2023-05-10T11:46:48;0.30;;;0.30;;
31378;SDS011;61664;48.112;11.662;2023-05-10T11:49:15;2.08;;;0.45;;
31378;SDS011;61664;48.112;11.662;2023-05-10T11:51:42;0.30;;;0.30;;
31378;SDS011;61664;48.112;11.662;2023-05-10T11:54:12;1.60;;;0.53;;
31378;SDS011;61664;48.112;11.662;2023-05-10T11:56:40;0.40;;;0.40;;
31378;SDS011;61664;48.112;11.662;2023-05-10T11:59:07;0.60;;;0.60;;
31378;SDS011;61664;48.112;11.662;2023-05-10T12:01:34;0.85;;;0.70;;
31378;SDS011;61664;48.112;11.662;2023-05-10T12:04:02;2.72;;;0.93;;
31378;SDS011;61664;48.112;11.662;2023-05-10T12:06:31;1.08;;;0.98;;
31378;SDS011;61664;48.112;11.662;2023-05-10T12:09:23;1.00;;;1.00;;
31378;SDS011;61664;48.112;11.662;2023-05-10T12:12:05;1.92;;;1.17;;
31378;SDS011;61664;48.112;11.662;2023-05-10T12:14:34;1.08;;;1.02;;
31378;SDS011;61664;48.112;11.662;2023-05-10T12:17:01;1.63;;;1.00;;
31378;SDS011;61664;48.112;11.662;2023-05-10T12:19:29;2.42;;;1.10;;
31378;SDS011;61664;48.112;11.662;2023-05-10T12:22:05;1.42;;;0.80;;
31378;SDS011;61664;48.112;11.662;2023-05-10T12:24:36;0.77;;;0.50;;
31378;SDS011;61664;48.112;11.662;2023-05-10T12:27:04;1.35;;;0.77;;
31378;SDS011;61664;48.112;11.662;2023-05-10T12:29:34;1.10;;;1.08;;
31378;SDS011;61664;48.112;11.662;2023-05-10T12:32:01;0.77;;;0.77;;
31378;SDS011;61664;48.112;11.662;2023-05-10T12:34:35;0.73;;;0.63;;
31378;SDS011;61664;48.112;11.662;2023-05-10T12:37:03;0.85;;;0.50;;
31378;SDS011;61664;48.112;11.662;2023-05-10T12:39:43;0.30;;;0.30;;
31378;SDS011;61664;48.112;11.662;2023-05-10T12:42:12;1.08;;;0.55;;
31378;SDS011;61664;48.112;11.662;2023-05-10T12:44:39;0.60;;;0.60;;
31378;SDS011;61664;48.112;11.662;2023-05-10T12:47:06;0.70;;;0.70;;
31378;SDS011;61664;48.112;11.662;2023-05-10T12:49:33;0.73;;;0.63;;
31378;SDS011;61664;48.112;11.662;2023-05-10T12:52:00;0.80;;;0.80;;
31378;SDS011;61664;48.112;11.662;2023-05-10T12:54:27;0.75;;;0.55;;
31378;SDS011;61664;48.112;11.662;2023-05-10T12:56:54;1.38;;;1.17;;
31378;SDS011;61664;48.112;11.662;2023-05-10T12:59:21;1.45;;;1.35;;
31378;SDS011;61664;48.112;11.662;2023-05-10T13:01:49;1.40;;;1.30;;
31378;SDS011;61664;48.112;11.662;2023-05-10T13:04:16;0.88;;;0.88;;
31378;SDS011;61664;48.112;11.662;2023-05-10T13:06:43;0.52;;;0.52;;
31378;SDS011;61664;48.112;11.662;2023-05-10T13:09:10;0.85;;;0.82;;
31378;SDS011;61664;48.112;11.662;2023-05-10T13:11:36;2.35;;;1.00;;
31378;SDS011;61664;48.112;11.662;2023-05-10T13:14:03;0.95;;;0.95;;
31378;SDS011;61664;48.112;11.662;2023-05-10T13:16:31;0.77;;;0.77;;
31378;SDS011;61664;48.112;11.662;2023-05-10T13:18:58;0.60;;;0.60;;
31378;SDS011;61664;48.112;11.662;2023-05-10T13:21:25;1.10;;;0.90;;
31378;SDS011;61664;48.112;11.662;2023-05-10T13:23:52;0.73;;;0.73;;
31378;SDS011;61664;48.112;11.662;2023-05-10T13:26:19;1.00;;;0.80;;
31378;SDS011;61664;48.112;11.662;2023-05-10T13:28:47;1.55;;;0.90;;
31378;SDS011;61664;48.112;11.662;2023-05-10T13:31:15;0.63;;;0.60;;
31378;SDS011;61664;48.112;11.662;2023-05-10T13:33:42;0.70;;;0.70;;
31378;SDS011;61664;48.112;11.662;2023-05-10T13:36:09;0.90;;;0.68;;
31378;SDS011;61664;48.112;11.662;2023-05-10T13:38:36;0.82;;;0.60;;
31378;SDS011;61664;48.112;11.662;2023-05-10T13:41:03;0.60;;;0.60;;
31378;SDS011;61664;48.112;11.662;2023-05-10T13:43:30;1.33;;;0.80;;
31378;SDS011;61664;48.112;11.662;2023-05-10T13:45:57;0.77;;;0.77;;
31378;SDS011;61664;48.112;11.662;2023-05-10T13:48:26;0.75;;;0.75;;
31378;SDS011;61664;48.112;11.662;2023-05-10T13:50:53;0.77;;;0.50;;
31378;SDS011;61664;48.112;11.662;2023-05-10T13:53:20;1.10;;;0.40;;
31378;SDS011;61664;48.112;11.662;2023-05-10T13:55:48;0.70;;;0.68;;
31378;SDS011;61664;48.112;11.662;2023-05-10T13:58:16;0.65;;;0.60;;
31378;SDS011;61664;48.112;11.662;2023-05-10T14:00:55;0.40;;;0.40;;
31378;SDS011;61664;48.112;11.662;2023-05-10T14:03:22;0.88;;;0.68;;
31378;SDS011;61664;48.112;11.662;2023-05-10T14:05:49;0.50;;;0.50;;
31378;SDS011;61664;48.112;11.662;2023-05-10T14:08:16;0.50;;;0.50;;
31378;SDS011;61664;48.112;11.662;2023-05-10T14:10:46;0.57;;;0.57;;
31378;SDS011;61664;48.112;11.662;2023-05-10T14:13:13;0.85;;;0.80;;
31378;SDS011;61664;48.112;11.662;2023-05-10T14:15:40;1.33;;;1.00;;
31378;SDS011;61664;48.112;11.662;2023-05-10T14:18:07;0.50;;;0.50;;
31378;SDS011;61664;48.112;11.662;2023-05-10T14:20:34;0.90;;;0.70;;
31378;SDS011;61664;48.112;11.662;2023-05-10T14:23:00;1.15;;;0.60;;
31378;SDS011;61664;48.112;11.662;2023-05-10T14:25:27;2.05;;;1.50;;
31378;SDS011;61664;48.112;11.662;2023-05-10T14:27:54;2.92;;;0.90;;
31378;SDS011;61664;48.112;11.662;2023-05-10T14:30:21;1.13;;;0.60;;
31378;SDS011;61664;48.112;11.662;2023-05-10T14:32:48;0.68;;;0.65;;
31378;SDS011;61664;48.112;11.662;2023-05-10T14:35:15;0.57;;;0.57;;
31378;SDS011;61664;48.112;11.662;2023-05-10T14:37:44;0.50;;;0.40;;
31378;SDS011;61664;48.112;11.662;2023-05-10T14:40:12;0.68;;;0.60;;
31378;SDS011;61664;48.112;11.662;2023-05-10T14:42:40;0.80;;;0.77;;
31378;SDS011;61664;48.112;11.662;2023-05-10T14:45:08;0.63;;;0.63;;
31378;SDS011;61664;48.112;11.662;2023-05-10T14:47:37;0.50;;;0.45;;
31378;SDS011;61664;48.112;11.662;2023-05-10T14:50:05;0.68;;;0.68;;
31378;SDS011;61664;48.112;11.662;2023-05-10T14:52:33;0.63;;;0.60;;
31378;SDS011;61664;48.112;11.662;2023-05-10T14:55:00;0.40;;;0.40;;
31378;SDS011;61664;48.112;11.662;2023-05-10T14:57:27;0.60;;;0.52;;
31378;SDS011;61664;48.112;11.662;2023-05-10T14:59:55;0.60;;;0.40;;
31378;SDS011;61664;48.112;11.662;2023-05-10T15:02:23;0.50;;;0.50;;
31378;SDS011;61664;48.112;11.662;2023-05-10T15:04:51;0.55;;;0.50;;
31378;SDS011;61664;48.112;11.662;2023-05-10T15:07:18;0.40;;;0.40;;
31378;SDS011;61664;48.112;11.662;2023-05-10T15:09:45;0.30;;;0.30;;
31378;SDS011;61664;48.112;11.662;2023-05-10T15:12:12;3.63;;;0.60;;
31378;SDS011;61664;48.112;11.662;2023-05-10T15:14:39;0.55;;;0.55;;
31378;SDS011;61664;48.112;11.662;2023-05-10T15:17:06;0.57;;;0.50;;
31378;SDS011;61664;48.112;11.662;2023-05-10T15:19:33;0.60;;;0.60;;
31378;SDS011;61664;48.112;11.662;2023-05-10T15:22:00;0.32;;;0.32;;
31378;SDS011;61664;48.112;11.662;2023-05-10T15:24:28;0.40;;;0.40;;
31378;SDS011;61664;48.112;11.662;2023-05-10T15:26:55;0.40;;;0.40;;
31378;SDS011;61664;48.112;11.662;2023-05-10T15:29:22;0.40;;;0.40;;
31378;SDS011;61664;48.112;11.662;2023-05-10T15:31:49;0.40;;;0.40;;
31378;SDS011;61664;48.112;11.662;2023-05-10T15:34:17;0.40;;;0.40;;
31378;SDS011;61664;48.112;11.662;2023-05-10T15:36:45;0.70;;;0.70;;
31378;SDS011;61664;48.112;11.662;2023-05-10T15:39:12;0.38;;;0.38;;